Time;durP1;ratioP1;P1;durP2;ratioP2;P2;SDS_P1;SDS_P2;PMS_P1;PMS_P2;Temp;Humidity;BMP_temperature;BMP_pressure;BME280_temperature;BME280_humidity;BME280_pressure;Samples;Min_cycle;Max_cycle;Signal;HPM_P1;HPM_P2
2022/11/05 00:09:31;;;;;;;10.67;7.33;;;;;;;9.05;100.00;100512.34;4983578;28;20237;-58
2022/11/05 00:17:28;;;;;;;7.90;6.93;;;;;;;8.94;100.00;100516.69;4979116;28;20260;-60
2022/11/05 00:19:55;;;;;;;7.93;7.13;;;;;;;8.87;100.00;100515.81;4983619;28;20590;-60
2022/11/05 00:25:15;;;;;;;8.60;6.37;;;;;;;8.82;100.00;100528.03;4977013;28;20297;-58
2022/11/05 00:27:46;;;;;;;7.60;5.90;;;;;;;8.80;100.00;100520.16;4984651;28;20732;-60
2022/11/05 00:30:15;;;;;;;7.33;6.37;;;;;;;8.85;100.00;100530.66;4974309;28;20791;-58
2022/11/05 00:32:44;;;;;;;9.13;6.87;;;;;;;8.81;100.00;100527.16;4977126;28;20324;-58
2022/11/05 00:35:10;;;;;;;5.30;4.80;;;;;;;8.80;100.00;100528.00;4981198;28;20249;-58
2022/11/05 00:37:36;;;;;;;5.80;5.07;;;;;;;8.77;100.00;100529.75;4977024;28;20615;-59
2022/11/05 00:40:04;;;;;;;8.03;5.50;;;;;;;8.76;100.00;100536.72;4977691;28;20238;-58
2022/11/05 00:45:14;;;;;;;10.23;5.50;;;;;;;8.74;100.00;100533.25;4978934;28;20272;-56
2022/11/05 00:50:27;;;;;;;9.17;5.70;;;;;;;8.74;100.00;100540.19;4981500;28;20284;-56
2022/11/05 00:52:58;;;;;;;10.17;7.03;;;;;;;8.75;100.00;100541.97;4972210;28;20659;-55
2022/11/05 00:55:28;;;;;;;10.37;6.00;;;;;;;8.70;100.00;100548.91;4974598;28;20239;-57
2022/11/05 00:57:54;;;;;;;8.00;5.50;;;;;;;8.76;100.00;100551.56;4981335;28;20671;-56
2022/11/05 01:00:22;;;;;;;6.47;5.87;;;;;;;8.73;100.00;100543.69;4966811;28;20238;-57
2022/11/05 01:02:49;;;;;;;6.70;5.50;;;;;;;8.73;100.00;100549.78;4969425;28;20293;-60
2022/11/05 01:05:16;;;;;;;8.57;6.73;;;;;;;8.70;100.00;100554.16;4974531;28;20600;-57
2022/11/05 01:07:43;;;;;;;10.57;6.27;;;;;;;8.69;100.00;100557.66;4979942;28;20730;-57
2022/11/05 01:10:09;;;;;;;7.67;5.77;;;;;;;8.73;100.00;100559.41;4977215;28;20234;-57
2022/11/05 01:12:36;;;;;;;8.53;5.90;;;;;;;8.68;100.00;100566.38;4980425;28;20230;-57
2022/11/05 01:15:03;;;;;;;7.20;6.17;;;;;;;8.71;100.00;100566.38;4977629;28;20238;-56
2022/11/05 01:17:29;;;;;;;7.23;6.20;;;;;;;8.69;100.00;100568.09;4976568;28;20226;-58
2022/11/05 01:19:57;;;;;;;7.67;6.37;;;;;;;8.67;100.00;100570.75;4983085;28;20236;-58
2022/11/05 01:22:23;;;;;;;9.40;6.27;;;;;;;8.62;100.00;100568.97;4980991;28;22105;-59
2022/11/05 01:24:50;;;;;;;9.87;6.90;;;;;;;8.64;100.00;100575.09;4985290;28;20251;-59
2022/11/05 01:27:17;;;;;;;7.50;6.27;;;;;;;8.62;100.00;100582.03;4983462;28;20717;-59
2022/11/05 01:29:45;;;;;;;7.43;5.97;;;;;;;8.67;100.00;100582.91;4974185;28;20854;-60
2022/11/05 01:32:11;;;;;;;8.30;7.60;;;;;;;8.65;100.00;100571.59;4974203;28;20243;-60
2022/11/05 01:34:38;;;;;;;8.30;6.67;;;;;;;8.63;100.00;100578.53;4979565;28;20238;-60
2022/11/05 01:37:06;;;;;;;6.57;5.93;;;;;;;8.59;100.00;100578.53;4986666;28;20630;-59
2022/11/05 01:39:32;;;;;;;8.37;7.10;;;;;;;8.56;100.00;100583.78;4985636;28;20242;-61
2022/11/05 01:41:59;;;;;;;9.77;7.00;;;;;;;8.55;100.00;100582.00;4977562;28;20585;-59
2022/11/05 01:45:02;;;;;;;7.10;6.23;;;;;;;8.55;100.00;100586.38;4991123;28;20833;-59
2022/11/05 01:47:36;;;;;;;7.23;5.83;;;;;;;8.55;100.00;100583.75;4988776;28;20268;-62
2022/11/05 01:50:06;;;;;;;9.53;6.73;;;;;;;8.56;100.00;100583.78;4988355;28;20233;-59
2022/11/05 01:52:35;;;;;;;8.87;7.20;;;;;;;8.57;100.00;100579.41;4986696;28;20601;-59
2022/11/05 01:55:03;;;;;;;7.60;6.47;;;;;;;8.57;100.00;100579.41;4976310;28;20266;-60
2022/11/05 01:57:31;;;;;;;8.03;6.63;;;;;;;8.57;100.00;100582.03;4983037;28;20261;-59
2022/11/05 01:59:58;;;;;;;8.60;7.33;;;;;;;8.56;100.00;100589.00;4987795;28;20958;-60
2022/11/05 02:02:25;;;;;;;7.50;6.67;;;;;;;8.54;100.00;100601.19;4985961;28;20234;-62
2022/11/05 02:04:54;;;;;;;10.80;8.50;;;;;;;8.53;100.00;100609.91;4980619;28;20241;-58
2022/11/05 02:07:22;;;;;;;11.33;7.63;;;;;;;8.43;100.00;100605.50;4987196;28;20777;-59
2022/11/05 02:09:54;;;;;;;8.87;7.63;;;;;;;8.45;100.00;100610.72;4983445;28;20234;-60
2022/11/05 02:12:21;;;;;;;7.77;6.87;;;;;;;8.43;100.00;100608.13;4979253;28;20234;-59
2022/11/05 02:14:48;;;;;;;9.00;7.93;;;;;;;8.39;100.00;100608.06;4981448;28;20241;-59
2022/11/05 02:17:19;;;;;;;11.93;8.63;;;;;;;8.44;100.00;100614.22;4985477;28;20239;-59
2022/11/05 02:20:12;;;;;;;8.43;7.63;;;;;;;8.39;100.00;100623.75;4988197;28;20793;-59
2022/11/05 02:23:10;;;;;;;9.30;8.10;;;;;;;8.38;100.00;100628.13;4973893;28;20250;-59
2022/11/05 02:26:15;;;;;;;10.43;7.87;;;;;;;8.48;100.00;100627.31;4975394;28;20238;-59
2022/11/05 02:29:01;;;;;;;9.60;8.60;;;;;;;8.44;100.00;100620.31;4976440;28;20719;-59
2022/11/05 02:31:33;;;;;;;10.27;7.93;;;;;;;8.27;100.00;100624.53;4978928;28;20233;-58
2022/11/05 02:34:04;;;;;;;10.00;8.17;;;;;;;8.26;100.00;100625.41;4989778;28;20613;-57
2022/11/05 02:36:38;;;;;;;8.70;7.90;;;;;;;8.29;100.00;100626.31;4983248;28;20779;-58
2022/11/05 02:39:11;;;;;;;8.40;7.53;;;;;;;8.26;100.00;100638.50;4979131;28;20662;-57
2022/11/05 02:41:43;;;;;;;12.37;7.77;;;;;;;8.27;100.00;100635.00;4983920;28;20230;-58
2022/11/05 02:44:19;;;;;;;10.23;7.93;;;;;;;8.26;100.00;100631.50;4983646;28;20237;-59
2022/11/05 02:46:53;;;;;;;9.93;7.17;;;;;;;8.20;100.00;100636.69;4980117;28;20230;-58
2022/11/05 02:49:26;;;;;;;9.33;7.77;;;;;;;8.17;100.00;100638.41;4980128;28;20226;-58
2022/11/05 02:51:57;;;;;;;9.17;7.17;;;;;;;8.19;100.00;100639.31;4982471;28;20242;-58
2022/11/05 02:54:26;;;;;;;9.43;7.37;;;;;;;8.16;100.00;100644.53;4978152;28;20230;-59
2022/11/05 02:56:54;;;;;;;10.60;7.63;;;;;;;8.16;100.00;100645.38;4978993;28;20313;-58
2022/11/05 02:59:20;;;;;;;8.70;7.83;;;;;;;8.13;100.00;100654.09;4978112;28;20230;-57
2022/11/05 03:01:49;;;;;;;13.80;7.10;;;;;;;8.13;100.00;100651.47;4981538;28;20480;-57
2022/11/05 03:04:17;;;;;;;10.60;7.67;;;;;;;8.06;100.00;100660.13;4979468;28;20602;-58
2022/11/05 03:06:56;;;;;;;10.53;8.40;;;;;;;8.07;100.00;100661.00;4986864;28;20759;-58
2022/11/05 03:09:37;;;;;;;8.13;7.27;;;;;;;8.03;100.00;100667.06;4987246;28;20232;-57
2022/11/05 03:12:11;;;;;;;9.53;7.47;;;;;;;8.02;100.00;100668.81;4978432;28;20229;-56
2022/11/05 03:14:41;;;;;;;10.20;6.73;;;;;;;8.08;100.00;100673.22;4985499;28;20237;-57
2022/11/05 03:17:15;;;;;;;9.77;7.30;;;;;;;8.07;100.00;100671.47;4975937;28;20231;-58
2022/11/05 03:19:48;;;;;;;10.13;6.77;;;;;;;8.05;100.00;100674.06;4981349;28;20600;-59
2022/11/05 03:22:18;;;;;;;12.60;7.67;;;;;;;8.02;100.00;100687.13;4979467;28;20261;-57
2022/11/05 03:24:48;;;;;;;7.87;6.57;;;;;;;8.05;100.00;100679.31;4981575;28;20845;-57
2022/11/05 03:27:18;;;;;;;10.40;7.80;;;;;;;8.05;100.00;100683.66;4985014;28;20233;-57
2022/11/05 03:29:48;;;;;;;8.07;6.23;;;;;;;8.06;100.00;100683.66;4979565;28;20258;-57
2022/11/05 03:32:17;;;;;;;8.43;7.10;;;;;;;8.07;100.00;100689.75;4980010;28;20237;-58
2022/11/05 03:34:46;;;;;;;7.60;6.80;;;;;;;8.09;100.00;100688.03;4982415;28;20234;-57
2022/11/05 03:37:13;;;;;;;7.93;6.93;;;;;;;8.06;100.00;100693.25;4978386;28;20245;-57
2022/11/05 03:39:42;;;;;;;8.70;6.60;;;;;;;8.04;100.00;100703.72;4980814;28;20683;-56
2022/11/05 03:42:11;;;;;;;10.57;6.13;;;;;;;8.04;100.00;100698.47;4985576;28;23139;-56
2022/11/05 03:44:43;;;;;;;9.03;7.30;;;;;;;8.02;100.00;100708.03;4977230;28;20237;-57
2022/11/05 03:47:11;;;;;;;10.93;7.00;;;;;;;8.02;100.00;100708.03;4982224;28;20241;-56
2022/11/05 03:49:40;;;;;;;13.67;6.83;;;;;;;7.95;100.00;100719.28;4977431;28;20241;-57
2022/11/05 03:52:09;;;;;;;11.13;7.13;;;;;;;7.95;100.00;100714.06;4981712;28;20230;-57
2022/11/05 03:54:36;;;;;;;6.87;5.80;;;;;;;7.94;100.00;100722.78;4980640;28;20234;-56
2022/11/05 03:57:05;;;;;;;6.43;5.67;;;;;;;7.91;100.00;100720.13;4981684;28;20237;-55
2022/11/05 03:59:39;;;;;;;6.40;5.63;;;;;;;7.93;100.00;100725.38;4975933;28;20242;-56
2022/11/05 04:02:05;;;;;;;9.77;5.90;;;;;;;7.95;100.00;100727.13;4977637;28;20321;-55
2022/11/05 04:04:32;;;;;;;7.90;5.60;;;;;;;7.95;100.00;100724.53;4975114;28;20709;-56
2022/11/05 04:15:11;;;;;;;7.93;6.07;;;;;;;7.85;100.00;100740.97;4986870;28;20287;-55
2022/11/05 04:17:37;;;;;;;8.57;5.77;;;;;;;7.79;100.00;100743.53;4985504;28;20234;-56
2022/11/05 04:25:31;;;;;;;7.77;5.67;;;;;;;7.79;100.00;100756.59;4987831;28;20307;-55
2022/11/05 04:27:59;;;;;;;13.80;6.13;;;;;;;7.79;100.00;100759.19;4978597;28;20244;-54
2022/11/05 04:30:25;;;;;;;8.40;5.60;;;;;;;7.74;100.00;100756.53;4979800;28;20261;-54
2022/11/05 04:33:03;;;;;;;8.13;5.20;;;;;;;7.74;100.00;100766.13;4978684;28;20261;-56
2022/11/05 04:35:31;;;;;;;9.30;5.97;;;;;;;7.73;100.00;100769.63;4985077;28;20238;-54
2022/11/05 04:37:59;;;;;;;7.77;6.40;;;;;;;7.71;100.00;100769.56;4972528;28;20245;-54
2022/11/05 04:40:26;;;;;;;5.87;5.27;;;;;;;7.70;100.00;100772.19;4977404;28;20257;-54
2022/11/05 04:42:54;;;;;;;8.23;5.23;;;;;;;7.69;100.00;100770.41;4976857;28;20234;-55
2022/11/05 04:45:21;;;;;;;8.40;6.10;;;;;;;7.67;100.00;100770.41;4981703;28;20608;-55
2022/11/05 04:47:47;;;;;;;7.00;5.37;;;;;;;7.66;100.00;100771.28;4977508;28;20226;-54
2022/11/05 04:50:14;;;;;;;8.67;6.30;;;;;;;7.65;100.00;100773.03;4969512;28;20238;-56
2022/11/05 04:52:40;;;;;;;9.93;6.07;;;;;;;7.64;100.00;100771.25;4977311;28;20393;-55
2022/11/05 04:55:08;;;;;;;9.27;6.20;;;;;;;7.65;100.00;100773.03;4974445;28;20237;-54
2022/11/05 04:57:35;;;;;;;9.33;5.90;;;;;;;7.55;100.00;100771.16;4980873;28;20238;-54
2022/11/05 05:00:02;;;;;;;10.60;6.53;;;;;;;7.56;100.00;100772.91;4975794;28;20701;-54
2022/11/05 05:02:28;;;;;;;10.90;6.97;;;;;;;7.55;100.00;100771.16;4978501;28;20309;-54
2022/11/05 05:04:55;;;;;;;9.27;6.70;;;;;;;7.57;100.00;100768.53;4984949;28;20621;-54
2022/11/05 05:07:21;;;;;;;8.10;6.33;;;;;;;7.62;100.00;100766.88;4972808;28;20234;-54
2022/11/05 05:09:47;;;;;;;11.90;6.00;;;;;;;7.59;100.00;100778.16;4985212;28;20237;-55
2022/11/05 05:12:15;;;;;;;8.87;5.53;;;;;;;7.53;100.00;100772.84;4990863;28;20238;-57
2022/11/05 05:14:42;;;;;;;8.53;6.30;;;;;;;7.54;100.00;100774.59;4990326;28;20829;-54
2022/11/05 05:17:08;;;;;;;7.40;5.50;;;;;;;7.52;100.00;100772.84;4988464;28;20771;-57
2022/11/05 05:21:37;;;;;;;12.07;6.47;;;;;;;7.48;100.00;100778.91;4983897;28;20237;-54
2022/11/05 05:22:20;;;;;;;6.70;5.07;;;;;;;7.41;100.00;100785.78;4973667;28;20309;-55
2022/11/05 05:24:47;;;;;;;11.07;6.03;;;;;;;7.43;100.00;100791.88;4985125;28;20313;-55
2022/11/05 05:27:13;;;;;;;9.27;5.63;;;;;;;7.40;100.00;100791.84;4976985;28;20780;-55
2022/11/05 05:29:41;;;;;;;6.80;5.53;;;;;;;7.40;100.00;100797.94;4974262;28;20238;-54
2022/11/05 05:32:07;;;;;;;10.23;6.70;;;;;;;7.33;100.00;100797.84;4980034;28;20229;-55
2022/11/05 05:34:34;;;;;;;9.10;6.27;;;;;;;7.33;100.00;100800.47;4979926;28;20237;-54
2022/11/05 05:37:00;;;;;;;10.67;6.33;;;;;;;7.29;100.00;100799.53;4974026;28;20248;-53
2022/11/05 05:39:27;;;;;;;13.67;6.30;;;;;;;7.29;100.00;100806.50;4977714;28;20241;-55
2022/11/05 05:41:53;;;;;;;6.17;5.10;;;;;;;7.25;100.00;100810.81;4975950;28;20238;-54
2022/11/05 05:44:20;;;;;;;7.03;6.23;;;;;;;7.32;100.00;100814.38;4975249;28;20230;-55
2022/11/05 05:46:47;;;;;;;7.90;5.40;;;;;;;7.24;100.00;100810.78;4976994;28;20242;-54
2022/11/05 05:49:14;;;;;;;9.90;6.03;;;;;;;7.15;100.00;100821.97;4976996;28;20728;-55
2022/11/05 05:51:40;;;;;;;12.50;4.97;;;;;;;7.21;100.00;100823.81;4983286;28;20244;-55
2022/11/05 05:54:08;;;;;;;7.90;5.40;;;;;;;7.21;100.00;100826.41;4968366;28;20226;-58
2022/11/05 05:56:34;;;;;;;8.43;5.10;;;;;;;7.20;100.00;100829.91;4977889;28;20238;-55
2022/11/05 05:59:01;;;;;;;6.90;5.10;;;;;;;7.20;100.00;100829.91;4975028;28;20250;-55
2022/11/05 06:01:27;;;;;;;7.63;4.83;;;;;;;7.17;100.00;100828.97;4981455;28;20237;-54
2022/11/05 06:03:55;;;;;;;5.67;5.17;;;;;;;7.21;100.00;100842.09;4975989;28;20239;-54
2022/11/05 06:06:21;;;;;;;7.73;5.13;;;;;;;7.21;100.00;100844.69;4972858;28;20242;-53
2022/11/05 06:08:48;;;;;;;8.33;5.60;;;;;;;7.16;100.00;100849.88;4979924;28;20234;-56
2022/11/05 06:11:14;;;;;;;8.00;5.57;;;;;;;7.09;100.00;100854.13;4983995;28;20226;-54
2022/11/05 06:13:45;;;;;;;5.83;5.23;;;;;;;7.10;100.00;100870.66;4968014;28;20241;-55
2022/11/05 06:16:11;;;;;;;8.20;5.13;;;;;;;7.06;100.00;100876.69;4976455;28;20242;-54
2022/11/05 06:18:38;;;;;;;12.37;6.10;;;;;;;7.08;100.00;100870.59;4974589;28;20235;-54
2022/11/05 06:21:08;;;;;;;7.80;6.37;;;;;;;6.96;100.00;100875.66;4986676;28;20234;-54
2022/11/05 06:23:35;;;;;;;8.60;5.53;;;;;;;6.98;100.00;100876.53;4977520;28;20230;-55
2022/11/05 06:26:02;;;;;;;7.07;5.40;;;;;;;6.99;100.00;100880.06;4976121;28;20242;-53
2022/11/05 06:28:29;;;;;;;8.27;5.53;;;;;;;7.03;100.00;100885.34;4979280;28;20234;-54
2022/11/05 06:30:56;;;;;;;7.60;5.30;;;;;;;7.03;100.00;100890.56;4978084;28;20260;-53
2022/11/05 06:33:22;;;;;;;11.23;5.53;;;;;;;7.05;100.00;100894.06;4982271;28;20292;-55
2022/11/05 06:35:49;;;;;;;9.77;5.30;;;;;;;7.06;100.00;100905.41;4983774;28;20241;-55
2022/11/05 06:38:16;;;;;;;7.23;4.43;;;;;;;7.07;100.00;100907.16;4980884;28;20241;-54
2022/11/05 06:40:43;;;;;;;11.57;5.50;;;;;;;7.07;100.00;100909.75;4988036;28;20234;-53
2022/11/05 06:43:09;;;;;;;5.40;4.50;;;;;;;7.05;100.00;100912.31;4981140;28;20340;-54
2022/11/05 06:45:36;;;;;;;5.33;4.20;;;;;;;7.02;100.00;100917.53;4980111;28;20229;-54
2022/11/05 06:48:02;;;;;;;7.77;5.40;;;;;;;7.05;100.00;100924.50;4983480;28;20238;-55
2022/11/05 06:50:29;;;;;;;5.90;4.47;;;;;;;7.05;100.00;100925.38;4982435;28;20731;-54
2022/11/05 06:52:56;;;;;;;5.20;4.13;;;;;;;7.03;100.00;100923.63;4989354;28;20234;-55
2022/11/05 06:55:24;;;;;;;6.93;4.10;;;;;;;7.03;100.00;100918.41;4984039;28;20241;-55
2022/11/05 06:57:51;;;;;;;7.50;5.50;;;;;;;7.05;100.00;100925.38;4976851;28;20245;-56
2022/11/05 07:00:18;;;;;;;5.00;3.90;;;;;;;7.07;100.00;100928.91;4980617;28;20233;-54
2022/11/05 07:02:45;;;;;;;6.07;4.30;;;;;;;7.08;100.00;100924.56;4983666;28;20227;-53
2022/11/05 07:05:12;;;;;;;8.73;4.13;;;;;;;7.06;100.00;100936.72;4990961;28;20300;-54
2022/11/05 07:07:38;;;;;;;10.57;4.43;;;;;;;7.02;100.00;100938.41;4983038;28;20244;-55
2022/11/05 07:10:07;;;;;;;13.00;3.90;;;;;;;7.03;100.00;100942.75;4978777;28;20873;-55
2022/11/05 07:12:35;;;;;;;6.83;4.33;;;;;;;7.04;100.00;100941.91;4979956;28;20239;-54
2022/11/05 07:15:02;;;;;;;8.80;4.57;;;;;;;6.85;100.00;100947.69;4983310;28;20318;-54
2022/11/05 07:17:29;;;;;;;5.17;4.47;;;;;;;6.88;100.00;100952.94;4977410;28;20240;-55
2022/11/05 07:19:56;;;;;;;7.93;4.90;;;;;;;6.87;100.00;100956.41;4980391;28;20234;-54
2022/11/05 07:22:22;;;;;;;5.27;4.07;;;;;;;6.85;100.00;100960.72;4980115;28;20245;-54
2022/11/05 07:24:49;;;;;;;5.17;3.80;;;;;;;6.90;100.00;100972.13;4971956;28;20371;-53
2022/11/05 07:27:15;;;;;;;5.87;4.20;;;;;;;6.94;100.00;100968.69;4976856;28;20230;-54
2022/11/05 07:29:43;;;;;;;9.03;5.03;;;;;;;6.98;100.00;100972.25;4982356;28;20229;-54
2022/11/05 07:32:10;;;;;;;6.10;4.40;;;;;;;6.92;100.00;100971.28;4977957;28;20621;-53
2022/11/05 07:34:36;;;;;;;6.17;4.10;;;;;;;6.95;100.00;100986.13;4986070;28;20238;-55
2022/11/05 07:37:03;;;;;;;8.03;4.30;;;;;;;6.97;100.00;100976.59;4981066;28;20248;-56
2022/11/05 07:39:29;;;;;;;5.37;3.80;;;;;;;6.95;100.00;100983.53;4979985;28;20248;-54
2022/11/05 07:41:56;;;;;;;6.27;4.47;;;;;;;6.93;100.00;100982.63;4983486;28;20246;-54
2022/11/05 07:44:23;;;;;;;13.80;4.83;;;;;;;6.92;100.00;100975.66;4985653;28;20233;-54
2022/11/05 07:46:51;;;;;;;7.50;5.27;;;;;;;6.92;100.00;100981.75;4976269;28;20238;-54
2022/11/05 07:49:17;;;;;;;11.27;5.87;;;;;;;6.95;100.00;100975.69;4984600;28;20758;-54
2022/11/05 07:51:44;;;;;;;7.17;4.30;;;;;;;6.98;100.00;100972.25;4986491;28;20250;-54
2022/11/05 07:54:10;;;;;;;5.50;4.00;;;;;;;6.99;100.00;100980.13;4977380;28;20696;-54
2022/11/05 07:56:37;;;;;;;9.37;4.20;;;;;;;7.03;100.00;100983.66;4978003;28;20240;-55
2022/11/05 07:59:03;;;;;;;7.57;4.90;;;;;;;7.03;100.00;100981.94;4982501;28;20238;-55
2022/11/05 08:01:30;;;;;;;7.87;5.30;;;;;;;7.07;100.00;100988.94;4985349;28;20238;-55
2022/11/05 08:03:58;;;;;;;13.30;4.73;;;;;;;7.04;100.00;100991.50;4977089;28;20237;-53
2022/11/05 08:06:24;;;;;;;10.27;5.37;;;;;;;7.11;100.00;100993.38;4985468;28;20230;-53
2022/11/05 08:08:50;;;;;;;6.70;5.50;;;;;;;7.11;100.00;100990.75;4978738;28;20227;-58
2022/11/05 08:11:17;;;;;;;7.53;4.50;;;;;;;7.24;100.00;100994.47;4981428;28;20727;-53
2022/11/05 08:13:44;;;;;;;8.10;5.17;;;;;;;7.16;100.00;100991.72;4977669;28;20289;-54
2022/11/05 08:16:10;;;;;;;10.10;5.33;;;;;;;7.10;100.00;100996.84;4974875;28;21548;-53
2022/11/05 08:18:37;;;;;;;8.50;5.63;;;;;;;7.27;100.00;100996.25;4980221;28;20748;-54
2022/11/05 08:21:06;;;;;;;8.70;5.23;;;;;;;7.33;100.00;101004.16;4971675;28;20243;-53
2022/11/05 08:23:32;;;;;;;9.43;4.80;;;;;;;7.43;100.00;101006.09;4984642;28;20265;-54
2022/11/05 08:26:02;;;;;;;11.47;4.97;;;;;;;7.47;100.00;101010.50;4978650;28;20453;-55
2022/11/05 08:28:28;;;;;;;5.30;4.20;;;;;;;7.50;100.00;101013.16;4979447;28;20234;-55
2022/11/05 08:30:56;;;;;;;7.87;5.57;;;;;;;7.55;100.00;101016.75;4977282;28;20230;-53
2022/11/05 08:33:24;;;;;;;9.67;5.03;;;;;;;7.58;100.00;101016.78;4982878;28;20234;-54
2022/11/05 08:35:50;;;;;;;5.43;4.23;;;;;;;7.73;100.00;101033.56;4975769;28;20242;-61
2022/11/05 08:38:19;;;;;;;8.67;5.17;;;;;;;7.82;100.00;101034.56;4979315;28;20234;-53
2022/11/05 08:40:54;;;;;;;11.17;4.87;;;;;;;7.97;100.00;101041.78;4978692;28;20230;-55
2022/11/05 08:43:21;;;;;;;9.33;5.00;;;;;;;8.13;100.00;101040.25;4982040;28;20288;-58
2022/11/05 08:45:47;;;;;;;9.60;5.33;;;;;;;8.24;100.00;101040.38;4976104;28;20261;-54
2022/11/05 08:48:15;;;;;;;11.57;5.10;;;;;;;8.34;100.00;101042.25;4974303;28;20226;-54
2022/11/05 08:50:43;;;;;;;7.20;4.83;;;;;;;8.50;100.00;101046.00;4982202;28;20240;-55
2022/11/05 08:53:09;;;;;;;9.10;4.90;;;;;;;8.68;100.00;101037.50;4978996;28;20708;-54
2022/11/05 08:55:37;;;;;;;9.03;5.10;;;;;;;8.78;100.00;101034.13;4979398;28;20229;-53
2022/11/05 08:58:06;;;;;;;6.53;3.87;;;;;;;8.85;100.00;101046.41;4979758;28;20261;-54
2022/11/05 09:00:34;;;;;;;6.73;4.30;;;;;;;8.91;100.00;101040.34;4979685;28;20604;-53
2022/11/05 09:03:02;;;;;;;8.63;4.67;;;;;;;9.07;100.00;101048.38;4980889;28;20249;-54
2022/11/05 09:05:28;;;;;;;6.93;4.30;;;;;;;9.09;100.00;101051.03;4980188;28;20237;-55
2022/11/05 09:07:55;;;;;;;8.27;4.37;;;;;;;9.18;100.00;101055.47;4970818;28;20237;-53
2022/11/05 09:10:22;;;;;;;9.20;4.17;;;;;;;9.32;100.00;101061.72;4983153;28;20237;-54
2022/11/05 09:12:50;;;;;;;8.97;4.70;;;;;;;9.37;100.00;101062.66;4978421;28;20726;-54
2022/11/05 09:15:16;;;;;;;9.87;4.23;;;;;;;9.42;100.00;101060.06;4985765;28;20238;-53
2022/11/05 09:17:43;;;;;;;10.23;4.97;;;;;;;9.41;100.00;101069.69;4972622;28;20230;-55
2022/11/05 09:20:11;;;;;;;5.90;4.43;;;;;;;9.51;100.00;101075.84;4973485;28;20233;-55
2022/11/05 09:22:37;;;;;;;8.37;4.50;;;;;;;9.48;100.00;101081.97;4973392;28;20238;-54
2022/11/05 09:25:05;;;;;;;9.63;4.40;;;;;;;9.20;100.00;101086.06;4977032;28;20245;-54
2022/11/05 09:27:31;;;;;;;13.30;4.63;;;;;;;9.35;100.00;101084.47;4977445;28;20248;-54
2022/11/05 09:29:59;;;;;;;8.67;3.83;;;;;;;9.43;100.00;101082.78;4976432;28;20562;-54
2022/11/05 09:32:25;;;;;;;9.30;4.57;;;;;;;9.44;100.00;101090.69;4975655;28;20236;-54
2022/11/05 09:34:52;;;;;;;10.13;3.30;;;;;;;9.42;100.00;101081.03;4977626;28;20234;-55
2022/11/05 09:37:19;;;;;;;7.07;3.77;;;;;;;9.57;100.00;101091.66;4985207;28;20229;-54
2022/11/05 09:39:45;;;;;;;9.03;4.13;;;;;;;9.56;100.00;101093.41;4982469;28;20328;-54
2022/11/05 09:42:13;;;;;;;10.93;4.17;;;;;;;9.52;100.00;101096.88;4978044;28;20257;-55
2022/11/05 09:44:42;;;;;;;9.90;3.60;;;;;;;9.55;100.00;101094.28;4981660;28;20238;-54
2022/11/05 09:47:15;;;;;;;5.83;3.50;;;;;;;9.64;100.00;101100.44;4984176;28;20789;-54
2022/11/05 09:49:46;;;;;;;8.80;3.73;;;;;;;9.67;100.00;101103.97;4982727;28;20876;-54
2022/11/05 09:52:15;;;;;;;7.20;3.40;;;;;;;9.67;100.00;101109.22;4970366;28;20238;-54
2022/11/05 09:54:42;;;;;;;8.63;3.47;;;;;;;9.69;100.00;101109.25;4976620;28;20234;-54
2022/11/05 09:57:14;;;;;;;7.90;3.20;;;;;;;9.69;100.00;101111.88;4974985;28;20238;-54
2022/11/05 09:59:43;;;;;;;10.17;3.73;;;;;;;9.83;100.00;101106.72;4977548;28;20768;-54
2022/11/05 10:02:18;;;;;;;7.37;3.33;;;;;;;9.83;100.00;101109.34;4980515;28;20606;-54
2022/11/05 10:04:48;;;;;;;6.60;3.30;;;;;;;9.95;100.00;101114.69;4984428;28;20236;-54
2022/11/05 10:07:17;;;;;;;4.73;2.27;;;;;;;9.98;100.00;101115.59;4973277;28;20775;-54
2022/11/05 10:09:46;;;;;;;4.33;2.67;;;;;;;10.07;100.00;101119.13;4979037;28;20759;-55
2022/11/05 10:12:16;;;;;;;6.60;3.30;;;;;;;10.11;100.00;101115.66;4982241;28;20233;-54
2022/11/05 10:14:45;;;;;;;8.87;4.83;;;;;;;10.06;100.00;101113.03;4979684;28;20584;-54
2022/11/05 10:17:19;;;;;;;6.37;3.30;;;;;;;10.22;100.00;101119.28;4980532;28;20252;-53
2022/11/05 10:19:49;;;;;;;8.10;4.07;;;;;;;10.27;100.00;101117.56;4973326;28;20241;-54
2022/11/05 10:22:17;;;;;;;5.67;2.80;;;;;;;10.28;100.00;101124.56;4979265;28;20272;-54
2022/11/05 10:24:47;;;;;;;4.17;2.20;;;;;;;10.42;100.00;101117.66;4975818;28;20230;-52
2022/11/05 10:27:16;;;;;;;6.43;3.30;;;;;;;10.41;100.00;101121.16;4973897;28;20237;-53
2022/11/05 10:29:43;;;;;;;8.83;2.90;;;;;;;10.51;100.00;101119.47;4978163;28;20238;-55
2022/11/05 10:32:14;;;;;;;4.77;2.30;;;;;;;10.55;100.00;101123.88;4977609;28;20230;-53
2022/11/05 10:34:41;;;;;;;7.63;2.33;;;;;;;10.61;100.00;101129.16;4979611;28;20245;-54
2022/11/05 10:37:08;;;;;;;6.27;2.33;;;;;;;10.68;100.00;101128.31;4982221;28;20244;-54
2022/11/05 10:39:35;;;;;;;6.97;2.30;;;;;;;10.72;100.00;101119.56;4980266;28;20230;-54
2022/11/05 10:42:20;;;;;;;3.33;2.13;;;;;;;10.70;100.00;101129.19;4984815;28;20739;-54
2022/11/05 10:44:55;;;;;;;6.60;2.83;;;;;;;10.73;100.00;101133.56;4978877;28;20313;-52
2022/11/05 10:47:35;;;;;;;4.97;2.53;;;;;;;10.80;100.00;101139.75;4978400;28;20233;-59
2022/11/05 10:50:04;;;;;;;8.37;2.37;;;;;;;10.76;100.00;101144.09;4967828;28;20783;-53
2022/11/05 10:52:33;;;;;;;4.77;2.33;;;;;;;10.84;100.00;101144.13;4981010;28;20712;-54
2022/11/05 10:55:02;;;;;;;8.63;2.73;;;;;;;10.90;100.00;101152.91;4981538;28;20777;-55
2022/11/05 10:57:34;;;;;;;5.47;2.00;;;;;;;10.91;100.00;101149.41;4981405;28;20661;-53
2022/11/05 11:00:21;;;;;;;8.07;2.03;;;;;;;11.01;100.00;101149.47;4982396;28;20308;-54
2022/11/05 11:02:50;;;;;;;3.53;1.80;;;;;;;11.06;100.00;101158.25;4977847;28;20661;-54
2022/11/05 11:05:23;;;;;;;6.37;2.10;;;;;;;11.07;100.00;101154.75;4982592;28;20242;-53
2022/11/05 11:08:01;;;;;;;3.07;1.50;;;;;;;11.16;100.00;101152.13;4978798;28;20241;-54
2022/11/05 11:10:30;;;;;;;8.90;2.27;;;;;;;11.20;100.00;101148.66;4984578;28;20237;-53
2022/11/05 11:12:57;;;;;;;2.33;1.33;;;;;;;11.25;100.00;101153.94;4974853;28;20732;-54
2022/11/05 11:15:26;;;;;;;8.80;2.38;;;;;;;11.27;100.00;101152.16;4977604;28;20244;-54
2022/11/05 11:17:55;;;;;;;7.93;2.73;;;;;;;11.28;99.67;101149.56;4979118;28;20296;-55
2022/11/05 11:20:25;;;;;;;3.20;2.22;;;;;;;11.32;99.35;101145.19;4975629;28;20230;-63
2022/11/05 11:23:03;;;;;;;5.93;2.10;;;;;;;11.36;98.85;101147.81;4983590;28;20242;-53
2022/11/05 11:25:31;;;;;;;4.00;1.83;;;;;;;11.43;96.55;101156.59;4985091;28;20234;-53
2022/11/05 11:28:02;;;;;;;4.97;2.23;;;;;;;11.49;98.01;101156.63;4983249;28;20599;-54
2022/11/05 11:30:28;;;;;;;6.03;2.80;;;;;;;11.46;98.04;101146.97;4976583;28;20238;-54
2022/11/05 11:33:00;;;;;;;4.23;2.00;;;;;;;11.50;97.82;101149.59;4981296;28;20233;-54
2022/11/05 11:35:26;;;;;;;6.13;1.80;;;;;;;11.57;97.37;101151.38;4983580;28;20254;-52
2022/11/05 11:37:54;;;;;;;4.82;1.95;;;;;;;11.58;93.28;101151.38;4983917;28;20249;-55
2022/11/05 11:40:23;;;;;;;2.80;1.45;;;;;;;11.60;90.85;101159.25;4984134;28;20233;-54
2022/11/05 11:42:54;;;;;;;6.78;2.90;;;;;;;11.62;93.17;101154.91;4984115;28;20245;-54
2022/11/05 11:45:25;;;;;;;4.72;1.77;;;;;;;11.63;93.10;101146.13;4980670;28;20266;-54
2022/11/05 11:47:52;;;;;;;3.33;1.70;;;;;;;11.62;89.38;101154.91;4982420;28;20232;-60
2022/11/05 11:50:41;;;;;;;5.07;1.90;;;;;;;11.58;93.05;101153.09;4981331;28;20260;-54
2022/11/05 11:53:25;;;;;;;2.28;1.65;;;;;;;11.53;92.64;101158.38;4980595;28;20252;-53
2022/11/05 11:56:14;;;;;;;6.97;1.70;;;;;;;11.55;91.64;101164.53;4982552;28;20731;-54
2022/11/05 11:58:43;;;;;;;6.13;1.40;;;;;;;11.61;91.66;101163.63;4972456;28;20241;-53
2022/11/05 12:01:29;;;;;;;2.42;1.52;;;;;;;11.68;92.12;101155.75;4980729;28;20665;-53
2022/11/05 12:04:00;;;;;;;3.22;1.80;;;;;;;11.70;92.98;101169.81;4981275;28;20246;-53
2022/11/05 12:06:33;;;;;;;2.42;1.45;;;;;;;11.87;89.60;101161.97;4977341;28;20237;-54